createdAt,value
2023-08-06T00:00:36.109Z,24.38
2023-08-06T00:01:39.093Z,24.41
2023-08-06T00:02:41.445Z,24.39
2023-08-06T00:03:43.519Z,24.42
2023-08-06T00:04:45.846Z,24.41
2023-08-06T00:05:47.730Z,24.44
2023-08-06T00:06:49.752Z,24.44
2023-08-06T00:07:52.117Z,24.43
2023-08-06T00:08:54.421Z,24.46
2023-08-06T00:09:59.143Z,24.46
2023-08-06T00:11:01.092Z,24.44
2023-08-06T00:12:05.452Z,24.47
2023-08-06T00:13:07.413Z,24.46
2023-08-06T00:14:09.504Z,24.48
2023-08-06T00:15:13.070Z,24.47
2023-08-06T00:16:15.562Z,24.48
2023-08-06T00:17:18.019Z,24.46
2023-08-06T00:18:20.000Z,24.46
2023-08-06T00:19:22.674Z,24.48
2023-08-06T00:20:24.701Z,24.47
2023-08-06T00:21:26.933Z,24.47
2023-08-06T00:22:28.900Z,24.46
2023-08-06T00:23:31.210Z,24.44
2023-08-06T00:24:33.174Z,24.45
2023-08-06T00:25:35.150Z,24.43
2023-08-06T00:26:37.241Z,24.43
2023-08-06T00:27:39.622Z,24.42
2023-08-06T00:28:42.696Z,24.40
2023-08-06T00:29:44.827Z,24.40
2023-08-06T00:30:47.209Z,24.40
2023-08-06T00:31:49.469Z,24.40
2023-08-06T00:32:51.524Z,24.42
2023-08-06T00:33:53.940Z,24.38
2023-08-06T00:34:56.020Z,24.41
2023-08-06T00:35:58.219Z,24.40
2023-08-06T00:37:00.118Z,24.40
2023-08-06T00:38:02.077Z,24.40
2023-08-06T00:39:04.107Z,24.39
2023-08-06T00:40:08.143Z,24.40
2023-08-06T00:41:10.120Z,24.27
2023-08-06T00:42:16.112Z,24.18
2023-08-06T00:43:18.276Z,24.08
2023-08-06T00:44:20.557Z,24.01
2023-08-06T00:45:23.462Z,23.99
2023-08-06T00:46:28.232Z,24.01
2023-08-06T00:47:30.265Z,24.01
2023-08-06T00:48:32.820Z,24.06
2023-08-06T00:49:37.365Z,24.04
2023-08-06T00:50:39.411Z,23.96
2023-08-06T00:51:41.656Z,24.00
2023-08-06T00:52:43.736Z,23.91
2023-08-06T00:53:46.455Z,23.92
2023-08-06T00:54:48.606Z,23.83
2023-08-06T00:55:52.510Z,23.83
2023-08-06T00:56:54.711Z,23.83
2023-08-06T00:57:57.651Z,23.85
2023-08-06T00:58:59.904Z,23.81
2023-08-06T01:00:02.471Z,23.80
2023-08-06T01:01:04.586Z,23.86
2023-08-06T01:02:07.273Z,23.85
2023-08-06T01:03:09.695Z,23.87
2023-08-06T01:04:13.479Z,23.86
2023-08-06T01:05:15.779Z,23.87
2023-08-06T01:06:22.923Z,23.90
2023-08-06T01:07:45.519Z,23.90
2023-08-06T01:09:01.617Z,23.90
2023-08-06T01:10:21.826Z,23.90
2023-08-06T01:11:52.937Z,23.93
2023-08-06T01:13:24.298Z,23.89
2023-08-06T01:14:35.108Z,23.87
2023-08-06T01:15:45.060Z,23.87
2023-08-06T01:16:47.999Z,23.88
2023-08-06T01:17:51.324Z,23.88
2023-08-06T01:18:56.376Z,23.89
2023-08-06T01:19:59.425Z,23.89
2023-08-06T01:21:01.406Z,23.88
2023-08-06T01:22:03.526Z,23.86
2023-08-06T01:23:05.610Z,23.90
2023-08-06T01:24:07.726Z,23.90
2023-08-06T01:25:10.618Z,23.85
2023-08-06T01:26:34.324Z,23.71
2023-08-06T01:27:46.263Z,23.59
2023-08-06T01:29:00.063Z,23.59
2023-08-06T01:30:30.837Z,23.42
2023-08-06T01:31:36.421Z,23.38
2023-08-06T01:32:43.618Z,23.41
2023-08-06T01:33:48.874Z,23.38
2023-08-06T01:34:52.735Z,23.34
2023-08-06T01:35:56.136Z,23.33
2023-08-06T01:37:00.825Z,23.30
2023-08-06T01:38:03.760Z,23.26
2023-08-06T01:39:06.687Z,23.19
2023-08-06T01:40:14.006Z,23.18
2023-08-06T01:41:16.129Z,23.14
2023-08-06T01:42:18.079Z,23.14
2023-08-06T01:43:24.676Z,23.15
2023-08-06T01:44:27.059Z,23.12
2023-08-06T01:45:29.239Z,23.10
2023-08-06T01:46:31.530Z,23.12
2023-08-06T01:47:33.736Z,23.07
2023-08-06T01:48:35.767Z,23.06
2023-08-06T01:49:38.107Z,23.10
2023-08-06T01:50:45.264Z,22.98
2023-08-06T01:51:47.291Z,22.97
2023-08-06T01:52:49.266Z,22.94
2023-08-06T01:53:51.258Z,22.93
2023-08-06T01:54:55.713Z,22.95
2023-08-06T01:55:58.092Z,22.98
2023-08-06T01:57:00.459Z,22.99
2023-08-06T01:58:02.528Z,22.93
2023-08-06T01:59:05.443Z,22.96
2023-08-06T02:00:09.530Z,22.96
2023-08-06T02:01:17.449Z,22.95
2023-08-06T02:02:26.908Z,22.90
2023-08-06T02:03:28.993Z,22.98
2023-08-06T02:04:31.041Z,22.92
2023-08-06T02:05:33.290Z,22.89
2023-08-06T02:06:35.272Z,22.92
2023-08-06T02:07:37.208Z,22.94
2023-08-06T02:08:40.691Z,22.96
2023-08-06T02:09:42.912Z,22.97
2023-08-06T02:10:45.890Z,22.97
2023-08-06T02:11:47.961Z,22.96
2023-08-06T02:12:50.122Z,22.91
2023-08-06T02:13:52.909Z,22.91
2023-08-06T02:14:55.586Z,22.87
2023-08-06T02:15:57.656Z,22.86
2023-08-06T02:17:00.871Z,22.86
2023-08-06T02:18:03.050Z,22.85
2023-08-06T02:19:05.230Z,22.80
2023-08-06T02:20:11.096Z,22.87
2023-08-06T02:21:13.061Z,22.85
2023-08-06T02:22:16.120Z,22.85
2023-08-06T02:23:18.056Z,22.83
2023-08-06T02:24:20.022Z,22.93
2023-08-06T02:25:22.340Z,23.00
2023-08-06T02:26:24.382Z,22.96
2023-08-06T02:27:26.627Z,22.91
2023-08-06T02:28:29.260Z,22.95
2023-08-06T02:29:31.517Z,22.95
2023-08-06T02:30:36.706Z,22.96
2023-08-06T02:31:38.681Z,23.09
2023-08-06T02:32:41.921Z,23.29
2023-08-06T02:33:44.191Z,23.71
2023-08-06T02:34:46.608Z,24.30
2023-08-06T02:35:50.365Z,24.34
2023-08-06T02:36:52.518Z,24.54
2023-08-06T02:37:55.213Z,24.87
2023-08-06T02:38:57.858Z,25.12
2023-08-06T02:40:00.894Z,25.23
2023-08-06T02:41:06.118Z,25.48
2023-08-06T02:42:08.852Z,25.59
2023-08-06T02:43:11.070Z,25.88
2023-08-06T02:44:13.305Z,26.21
2023-08-06T02:45:15.636Z,26.45
2023-08-06T02:46:18.281Z,26.79
2023-08-06T02:47:20.213Z,27.20
2023-08-06T02:48:22.327Z,27.54
2023-08-06T02:49:24.254Z,27.54
2023-08-06T02:50:26.654Z,28.03
2023-08-06T02:51:28.714Z,28.25
2023-08-06T02:52:30.753Z,28.15
2023-08-06T02:53:33.184Z,27.86
2023-08-06T02:54:39.768Z,27.73
2023-08-06T02:55:48.852Z,27.75
2023-08-06T02:56:54.214Z,28.32
2023-08-06T02:58:03.700Z,28.57
2023-08-06T02:59:13.580Z,28.27
2023-08-06T03:00:27.027Z,28.19
2023-08-06T03:01:29.781Z,28.46
2023-08-06T03:02:37.955Z,28.63
2023-08-06T03:04:00.113Z,29.03
2023-08-06T03:05:11.120Z,29.39
2023-08-06T03:06:18.038Z,29.70
2023-08-06T03:07:24.765Z,29.49
2023-08-06T03:08:35.660Z,29.82
2023-08-06T03:09:37.682Z,29.86
2023-08-06T03:10:43.204Z,30.15
2023-08-06T03:11:45.807Z,30.27
2023-08-06T03:12:50.438Z,30.48
2023-08-06T03:13:53.234Z,30.59
2023-08-06T03:14:55.573Z,30.96
2023-08-06T03:15:59.250Z,30.92
2023-08-06T03:17:02.204Z,30.60
2023-08-06T03:18:06.926Z,29.93
2023-08-06T03:19:08.957Z,29.36
2023-08-06T03:20:15.089Z,29.12
2023-08-06T03:21:17.601Z,28.83
2023-08-06T03:22:19.560Z,28.38
2023-08-06T03:23:21.953Z,28.26
2023-08-06T03:24:23.959Z,27.68
2023-08-06T03:25:27.085Z,27.34
2023-08-06T03:26:29.185Z,27.28
2023-08-06T03:27:32.261Z,27.16
2023-08-06T03:28:34.951Z,26.99
2023-08-06T03:29:37.509Z,26.77
2023-08-06T03:30:41.157Z,26.71
2023-08-06T03:31:45.503Z,26.72
2023-08-06T03:32:50.251Z,26.67
2023-08-06T03:33:55.554Z,26.67
2023-08-06T03:35:01.612Z,26.48
2023-08-06T03:36:06.006Z,26.40
2023-08-06T03:37:10.048Z,26.54
2023-08-06T03:38:12.084Z,26.56
2023-08-06T03:39:15.493Z,26.53
2023-08-06T03:40:20.512Z,26.26
2023-08-06T03:41:22.741Z,26.32
2023-08-06T03:42:25.443Z,26.44
2023-08-06T03:43:27.657Z,26.31
2023-08-06T03:44:30.598Z,26.34
2023-08-06T03:45:32.732Z,26.37
2023-08-06T03:46:35.551Z,26.34
2023-08-06T03:47:40.928Z,26.07
2023-08-06T03:48:43.945Z,25.85
2023-08-06T03:49:46.267Z,25.86
2023-08-06T03:50:51.627Z,25.99
2023-08-06T03:51:57.305Z,26.07
2023-08-06T03:52:59.539Z,26.11
2023-08-06T03:54:01.542Z,26.13
2023-08-06T03:55:03.688Z,26.19
2023-08-06T03:56:06.658Z,26.12
2023-08-06T03:57:08.910Z,26.09
2023-08-06T03:58:10.862Z,26.05
2023-08-06T03:59:12.741Z,26.10
2023-08-06T04:00:16.783Z,26.34
2023-08-06T04:01:23.641Z,27.43
2023-08-06T04:02:25.556Z,28.43
2023-08-06T04:03:28.074Z,29.27
2023-08-06T04:04:30.402Z,29.64
2023-08-06T04:05:34.114Z,30.13
2023-08-06T04:06:36.176Z,30.71
2023-08-06T04:07:38.438Z,31.29
2023-08-06T04:08:40.611Z,30.99
2023-08-06T04:10:14.146Z,31.82
2023-08-06T04:11:16.092Z,32.50
2023-08-06T04:12:18.426Z,32.55
2023-08-06T04:13:21.377Z,32.47
2023-08-06T04:14:24.476Z,32.93
2023-08-06T04:15:26.678Z,32.89
2023-08-06T04:16:29.098Z,33.44
2023-08-06T04:17:31.050Z,33.95
2023-08-06T04:18:33.074Z,34.16
2023-08-06T04:19:35.266Z,34.00
2023-08-06T04:20:46.594Z,33.82
2023-08-06T04:21:48.581Z,34.53
2023-08-06T04:22:50.441Z,34.81
2023-08-06T04:23:52.420Z,35.13
2023-08-06T04:24:55.306Z,35.57
2023-08-06T04:25:59.254Z,35.89
2023-08-06T04:27:05.619Z,36.21
2023-08-06T04:28:08.654Z,36.92
2023-08-06T04:29:10.708Z,35.63
2023-08-06T04:30:16.110Z,35.91
2023-08-06T04:31:18.047Z,36.30
2023-08-06T04:32:20.873Z,36.27
2023-08-06T04:33:27.019Z,36.62
2023-08-06T04:34:28.970Z,36.63
2023-08-06T04:35:31.442Z,36.61
2023-08-06T04:36:33.605Z,37.15
2023-08-06T04:37:35.635Z,37.01
2023-08-06T04:38:37.563Z,36.90
2023-08-06T04:39:39.553Z,37.34
2023-08-06T04:40:44.949Z,37.28
2023-08-06T04:41:46.978Z,37.71
2023-08-06T04:42:48.995Z,37.64
2023-08-06T04:43:50.848Z,37.01
2023-08-06T04:44:53.172Z,37.92
2023-08-06T04:45:56.388Z,37.19
2023-08-06T04:46:58.496Z,37.05
2023-08-06T04:48:00.563Z,37.74
2023-08-06T04:49:02.457Z,37.73
2023-08-06T04:50:04.691Z,37.57
2023-08-06T04:51:06.698Z,37.99
2023-08-06T04:52:08.704Z,37.90
2023-08-06T04:53:10.749Z,37.99
2023-08-06T04:54:12.651Z,38.01
2023-08-06T04:55:14.784Z,38.06
2023-08-06T04:56:17.802Z,38.77
2023-08-06T04:57:19.786Z,39.40
2023-08-06T04:58:22.752Z,39.30
2023-08-06T04:59:24.840Z,39.33
2023-08-06T05:00:26.945Z,39.30
2023-08-06T05:01:29.789Z,38.99
2023-08-06T05:02:33.315Z,38.75
2023-08-06T05:03:35.677Z,39.08
2023-08-06T05:04:39.266Z,38.82
2023-08-06T05:05:42.683Z,39.68
2023-08-06T05:06:44.536Z,39.75
2023-08-06T05:07:52.748Z,39.10
2023-08-06T05:08:54.894Z,39.01
2023-08-06T05:09:56.743Z,39.03
2023-08-06T05:10:58.979Z,39.72
2023-08-06T05:12:05.474Z,39.54
2023-08-06T05:13:07.330Z,40.29
2023-08-06T05:14:09.188Z,39.69
2023-08-06T05:15:11.112Z,39.99
2023-08-06T05:16:13.258Z,40.26
2023-08-06T05:17:15.402Z,40.29
2023-08-06T05:18:17.286Z,40.33
2023-08-06T05:19:19.172Z,39.68
2023-08-06T05:20:22.246Z,40.14
2023-08-06T05:21:24.168Z,40.02
2023-08-06T05:22:29.033Z,39.96
2023-08-06T05:23:30.858Z,40.23
2023-08-06T05:24:32.745Z,40.03
2023-08-06T05:25:38.298Z,40.60
2023-08-06T05:26:40.280Z,40.34
2023-08-06T05:27:42.463Z,40.36
2023-08-06T05:28:44.279Z,40.41
2023-08-06T05:29:46.728Z,40.05
2023-08-06T05:30:52.821Z,40.72
2023-08-06T05:31:55.272Z,40.86
2023-08-06T05:32:57.625Z,41.93
2023-08-06T05:33:59.536Z,41.33
2023-08-06T05:35:01.760Z,42.16
2023-08-06T05:36:04.048Z,41.59
2023-08-06T05:37:06.455Z,41.73
2023-08-06T05:38:08.545Z,42.09
2023-08-06T05:39:10.703Z,42.20
2023-08-06T05:40:12.628Z,42.20
2023-08-06T05:41:18.038Z,41.87
2023-08-06T05:42:19.844Z,41.33
2023-08-06T05:43:21.968Z,41.74
2023-08-06T05:44:24.696Z,41.50
2023-08-06T05:45:26.628Z,41.83
2023-08-06T05:46:28.455Z,42.62
2023-08-06T05:47:30.384Z,42.69
2023-08-06T05:48:33.142Z,42.24
2023-08-06T05:49:35.337Z,41.69
2023-08-06T05:50:37.398Z,42.10
2023-08-06T05:51:39.411Z,42.23
2023-08-06T05:52:41.324Z,43.16
2023-08-06T05:53:43.155Z,42.83
2023-08-06T05:54:45.037Z,43.09
2023-08-06T05:55:48.802Z,42.69
2023-08-06T05:56:50.799Z,42.57
2023-08-06T05:57:53.807Z,42.45
2023-08-06T05:58:55.700Z,43.67
2023-08-06T05:59:57.604Z,42.93
2023-08-06T06:01:00.933Z,42.23
2023-08-06T06:02:03.530Z,42.10
2023-08-06T06:03:05.516Z,42.78
2023-08-06T06:04:07.407Z,43.15
2023-08-06T06:05:10.898Z,43.36
2023-08-06T06:06:14.178Z,43.01
2023-08-06T06:07:17.345Z,42.42
2023-08-06T06:08:19.278Z,43.29
2023-08-06T06:09:21.538Z,41.42
2023-08-06T06:10:23.487Z,42.30
2023-08-06T06:11:26.589Z,42.30
2023-08-06T06:12:28.431Z,42.73
2023-08-06T06:13:30.449Z,42.96
2023-08-06T06:14:32.552Z,42.53
2023-08-06T06:15:34.484Z,42.60
2023-08-06T06:16:36.443Z,43.06
2023-08-06T06:17:38.449Z,42.91
2023-08-06T06:18:40.497Z,42.25
2023-08-06T06:19:43.334Z,42.05
2023-08-06T06:20:45.494Z,42.34
2023-08-06T06:21:47.310Z,42.94
2023-08-06T06:22:49.210Z,42.77
2023-08-06T06:23:52.663Z,43.21
2023-08-06T06:24:54.897Z,41.96
2023-08-06T06:25:57.993Z,41.70
2023-08-06T06:27:00.329Z,42.48
2023-08-06T06:28:02.227Z,41.70
2023-08-06T06:29:06.040Z,41.60
2023-08-06T06:30:09.693Z,42.09
2023-08-06T06:31:12.718Z,42.27
2023-08-06T06:32:15.080Z,42.89
2023-08-06T06:33:17.017Z,43.17
2023-08-06T06:34:18.971Z,42.75
2023-08-06T06:35:20.992Z,42.77
2023-08-06T06:36:24.882Z,43.00
2023-08-06T06:37:26.908Z,42.83
2023-08-06T06:38:28.782Z,42.81
2023-08-06T06:39:30.781Z,42.53
2023-08-06T06:40:34.272Z,42.97
2023-08-06T06:41:36.625Z,43.12
2023-08-06T06:42:46.774Z,43.06
2023-08-06T06:43:50.061Z,42.85
2023-08-06T06:44:52.612Z,43.04
2023-08-06T06:45:58.619Z,42.68
2023-08-06T06:47:00.729Z,43.50
2023-08-06T06:48:03.083Z,43.69
2023-08-06T06:49:05.067Z,43.86
2023-08-06T06:50:07.680Z,43.92
2023-08-06T06:51:09.909Z,44.28
2023-08-06T06:52:12.499Z,44.00
2023-08-06T06:53:14.930Z,43.92
2023-08-06T06:54:16.971Z,44.28
2023-08-06T06:55:19.093Z,42.75
2023-08-06T06:56:21.148Z,41.85
2023-08-06T06:57:23.002Z,42.76
2023-08-06T06:58:25.024Z,43.03
2023-08-06T06:59:26.935Z,42.93
2023-08-06T07:00:29.375Z,43.23
2023-08-06T07:01:31.412Z,43.35
2023-08-06T07:02:33.372Z,43.79
2023-08-06T07:03:35.594Z,44.02
2023-08-06T07:04:37.883Z,43.51
2023-08-06T07:05:39.801Z,43.30
2023-08-06T07:06:43.266Z,43.72
2023-08-06T07:07:45.319Z,44.61
2023-08-06T07:08:47.376Z,44.79
2023-08-06T07:09:49.364Z,44.87
2023-08-06T07:10:51.410Z,44.65
2023-08-06T07:11:53.825Z,43.51
2023-08-06T07:12:56.018Z,44.30
2023-08-06T07:14:01.139Z,44.26
2023-08-06T07:15:03.077Z,44.31
2023-08-06T07:16:07.900Z,44.70
2023-08-06T07:17:11.881Z,43.28
2023-08-06T07:18:13.689Z,43.63
2023-08-06T07:19:15.902Z,43.75
2023-08-06T07:20:18.636Z,43.68
2023-08-06T07:21:21.531Z,44.06
2023-08-06T07:22:23.713Z,43.76
2023-08-06T07:23:27.199Z,44.62
2023-08-06T07:24:29.268Z,44.15
2023-08-06T07:25:31.236Z,43.70
2023-08-06T07:26:33.518Z,44.40
2023-08-06T07:27:36.126Z,43.54
2023-08-06T07:28:38.192Z,44.07
2023-08-06T07:29:40.942Z,43.65
2023-08-06T07:30:44.481Z,43.78
2023-08-06T07:31:48.411Z,43.85
2023-08-06T07:32:50.541Z,44.09
2023-08-06T07:33:52.382Z,44.50
2023-08-06T07:34:58.104Z,43.73
2023-08-06T07:36:00.115Z,43.56
2023-08-06T07:37:03.226Z,43.66
2023-08-06T07:38:05.193Z,43.44
2023-08-06T07:39:07.414Z,43.05
2023-08-06T07:40:10.202Z,42.99
2023-08-06T07:41:13.379Z,42.41
2023-08-06T07:42:15.508Z,42.57
2023-08-06T07:43:17.337Z,43.17
2023-08-06T07:44:19.779Z,42.85
2023-08-06T07:45:21.748Z,43.57
2023-08-06T07:46:24.116Z,42.43
2023-08-06T07:47:27.357Z,42.47
2023-08-06T07:48:32.701Z,40.92
2023-08-06T07:49:37.023Z,42.09
2023-08-06T07:50:38.935Z,40.96
2023-08-06T07:51:40.961Z,41.23
2023-08-06T07:52:42.863Z,42.15
2023-08-06T07:53:44.780Z,42.33
2023-08-06T07:54:47.093Z,42.51
2023-08-06T07:55:53.348Z,40.96
2023-08-06T07:56:55.647Z,40.73
2023-08-06T07:57:57.666Z,40.64
2023-08-06T07:58:59.631Z,40.73
2023-08-06T08:00:03.033Z,40.47
2023-08-06T08:01:18.331Z,39.60
2023-08-06T08:02:21.087Z,39.38
2023-08-06T08:03:23.423Z,39.08
2023-08-06T08:04:26.155Z,39.78
2023-08-06T08:05:28.059Z,39.28
2023-08-06T08:06:30.650Z,40.02
2023-08-06T08:07:34.150Z,40.35
2023-08-06T08:08:39.883Z,40.29
2023-08-06T08:09:42.929Z,39.78
2023-08-06T08:10:44.958Z,40.69
2023-08-06T08:11:48.475Z,41.17
2023-08-06T08:12:50.362Z,41.11
2023-08-06T08:13:52.350Z,41.27
2023-08-06T08:14:54.799Z,41.42
2023-08-06T08:16:00.420Z,41.79
2023-08-06T08:17:03.982Z,40.86
2023-08-06T08:18:05.843Z,41.35
2023-08-06T08:19:08.058Z,40.98
2023-08-06T08:20:10.397Z,41.36
2023-08-06T08:21:14.588Z,41.32
2023-08-06T08:22:16.535Z,41.00
2023-08-06T08:23:19.733Z,40.91
2023-08-06T08:24:25.139Z,40.46
2023-08-06T08:25:30.954Z,40.45
2023-08-06T08:26:35.052Z,40.56
2023-08-06T08:27:37.074Z,40.81
2023-08-06T08:28:39.717Z,41.50
2023-08-06T08:29:42.728Z,41.43
2023-08-06T08:30:45.092Z,41.02
2023-08-06T08:31:49.671Z,41.20
2023-08-06T08:32:52.026Z,40.48
2023-08-06T08:33:55.857Z,40.61
2023-08-06T08:34:58.912Z,40.31
2023-08-06T08:36:01.119Z,40.78
2023-08-06T08:37:03.570Z,40.83
2023-08-06T08:38:06.124Z,40.70
2023-08-06T08:39:08.101Z,40.81
2023-08-06T08:40:12.520Z,40.89
2023-08-06T08:41:16.937Z,39.64
2023-08-06T08:42:19.118Z,39.88
2023-08-06T08:43:25.045Z,40.09
2023-08-06T08:44:30.122Z,40.00
2023-08-06T08:45:40.826Z,39.58
2023-08-06T08:46:45.052Z,39.48
2023-08-06T08:47:49.103Z,39.78
2023-08-06T08:48:51.205Z,38.87
2023-08-06T08:49:56.513Z,39.08
2023-08-06T08:50:59.266Z,39.33
2023-08-06T08:52:04.018Z,39.51
2023-08-06T08:53:06.782Z,39.61
2023-08-06T08:54:09.906Z,39.71
2023-08-06T08:55:13.264Z,39.34
2023-08-06T08:56:19.413Z,39.45
2023-08-06T08:57:22.500Z,38.96
2023-08-06T08:58:24.869Z,39.04
2023-08-06T08:59:28.906Z,39.13
2023-08-06T09:00:33.885Z,39.50
2023-08-06T09:01:40.018Z,39.43
2023-08-06T09:02:43.315Z,39.47
2023-08-06T09:03:45.861Z,39.38
2023-08-06T09:04:49.815Z,39.65
2023-08-06T09:05:56.032Z,38.84
2023-08-06T09:07:00.507Z,38.61
2023-08-06T09:08:06.314Z,38.44
2023-08-06T09:09:13.349Z,37.76
2023-08-06T09:10:19.025Z,38.56
2023-08-06T09:11:23.349Z,38.06
2023-08-06T09:12:27.831Z,37.82
2023-08-06T09:13:30.670Z,38.08
2023-08-06T09:14:32.621Z,37.73
2023-08-06T09:15:35.671Z,38.15
2023-08-06T09:16:41.408Z,37.87
2023-08-06T09:17:43.883Z,37.91
2023-08-06T09:18:48.649Z,37.14
2023-08-06T09:19:51.310Z,36.95
2023-08-06T09:21:02.476Z,36.98
2023-08-06T09:22:12.422Z,36.86
2023-08-06T09:23:17.165Z,36.91
2023-08-06T09:24:19.385Z,37.30
2023-08-06T09:25:29.186Z,37.12
2023-08-06T09:26:35.982Z,37.22
2023-08-06T09:27:39.061Z,37.42
2023-08-06T09:28:43.530Z,36.97
2023-08-06T09:29:46.787Z,36.96
2023-08-06T09:30:50.484Z,36.92
2023-08-06T09:31:54.260Z,36.47
2023-08-06T09:32:58.298Z,35.91
2023-08-06T09:34:02.862Z,35.93
2023-08-06T09:35:06.870Z,36.13
2023-08-06T09:36:12.573Z,35.97
2023-08-06T09:37:14.575Z,35.41
2023-08-06T09:38:17.171Z,35.30
2023-08-06T09:39:21.233Z,35.42
2023-08-06T09:40:33.426Z,35.36
2023-08-06T09:41:37.371Z,35.11
2023-08-06T09:42:44.737Z,35.03
2023-08-06T09:43:46.774Z,34.89
2023-08-06T09:44:48.906Z,34.61
2023-08-06T09:45:50.832Z,34.68
2023-08-06T09:46:58.785Z,34.63
2023-08-06T09:48:04.083Z,34.81
2023-08-06T09:49:09.906Z,34.32
2023-08-06T09:50:22.044Z,34.26
2023-08-06T09:51:26.718Z,34.12
2023-08-06T09:52:29.062Z,34.46
2023-08-06T09:53:31.400Z,34.48
2023-08-06T09:54:37.062Z,33.80
2023-08-06T09:55:40.028Z,33.93
2023-08-06T09:56:43.557Z,34.17
2023-08-06T09:57:45.511Z,34.18
2023-08-06T09:58:50.373Z,33.84
2023-08-06T09:59:54.456Z,33.96
2023-08-06T10:01:01.950Z,33.97
2023-08-06T10:02:14.899Z,34.11
2023-08-06T10:03:19.251Z,34.07
2023-08-06T10:04:25.262Z,34.20
2023-08-06T10:05:28.728Z,34.37
2023-08-06T10:06:38.545Z,34.25
2023-08-06T10:07:41.565Z,34.30
2023-08-06T10:08:43.890Z,34.25
2023-08-06T10:09:46.096Z,34.01
2023-08-06T10:10:48.184Z,33.97
2023-08-06T10:11:59.454Z,33.97
2023-08-06T10:13:04.908Z,34.03
2023-08-06T10:14:34.518Z,33.85
2023-08-06T10:15:41.432Z,33.86
2023-08-06T10:16:43.908Z,33.77
2023-08-06T10:17:51.560Z,33.53
2023-08-06T10:18:57.493Z,33.70
2023-08-06T10:20:00.903Z,33.77
2023-08-06T10:21:04.468Z,33.92
2023-08-06T10:22:16.848Z,33.74
2023-08-06T10:23:21.850Z,33.67
2023-08-06T10:24:24.028Z,33.57
2023-08-06T10:25:25.955Z,33.44
2023-08-06T10:26:31.056Z,33.45
2023-08-06T10:27:40.616Z,33.71
2023-08-06T10:28:42.747Z,33.82
2023-08-06T10:29:44.916Z,33.67
2023-08-06T10:30:49.269Z,33.79
2023-08-06T10:32:02.347Z,33.74
2023-08-06T10:33:05.494Z,33.92
2023-08-06T10:34:08.789Z,33.86
2023-08-06T10:35:32.119Z,33.46
2023-08-06T10:36:36.771Z,33.58
2023-08-06T10:37:38.786Z,33.47
2023-08-06T10:38:51.552Z,33.44
2023-08-06T10:39:54.458Z,33.38
2023-08-06T10:40:56.654Z,33.33
2023-08-06T10:42:04.398Z,33.42
2023-08-06T10:43:11.633Z,33.40
2023-08-06T10:44:13.732Z,33.29
2023-08-06T10:45:20.245Z,33.33
2023-08-06T10:46:28.820Z,33.33
2023-08-06T10:47:31.419Z,33.39
2023-08-06T10:48:41.693Z,33.35
2023-08-06T10:49:43.951Z,33.13
2023-08-06T10:50:46.623Z,33.24
2023-08-06T10:51:49.043Z,33.25
2023-08-06T10:52:51.702Z,33.37
2023-08-06T10:53:53.993Z,33.24
2023-08-06T10:54:56.827Z,33.10
2023-08-06T10:55:59.386Z,33.14
2023-08-06T10:57:01.763Z,33.05
2023-08-06T10:58:04.119Z,33.12
2023-08-06T10:59:06.257Z,33.18
2023-08-06T11:00:16.444Z,33.22
2023-08-06T11:01:19.876Z,33.32
2023-08-06T11:02:23.691Z,33.21
2023-08-06T11:03:29.129Z,33.11
2023-08-06T11:04:34.285Z,33.05
2023-08-06T11:05:37.629Z,32.91
2023-08-06T11:06:39.856Z,33.04
2023-08-06T11:07:42.134Z,33.10
2023-08-06T11:08:49.012Z,33.14
2023-08-06T11:09:52.307Z,33.23
2023-08-06T11:11:03.558Z,33.28
2023-08-06T11:12:11.819Z,33.25
2023-08-06T11:13:18.559Z,33.28
2023-08-06T11:14:20.825Z,33.19
2023-08-06T11:15:26.011Z,33.27
2023-08-06T11:16:28.311Z,33.25
2023-08-06T11:17:35.120Z,33.34
2023-08-06T11:18:38.417Z,33.27
2023-08-06T11:19:42.579Z,33.37
2023-08-06T11:20:44.965Z,33.51
2023-08-06T11:21:48.998Z,33.32
2023-08-06T11:22:53.004Z,33.35
2023-08-06T11:23:55.404Z,33.38
2023-08-06T11:24:58.155Z,33.36
2023-08-06T11:26:01.053Z,33.18
2023-08-06T11:27:16.470Z,33.06
2023-08-06T11:28:22.767Z,33.06
2023-08-06T11:29:25.382Z,32.99
2023-08-06T11:30:28.265Z,33.07
2023-08-06T11:31:30.276Z,33.24
2023-08-06T11:32:35.056Z,32.96
2023-08-06T11:33:37.315Z,33.12
2023-08-06T11:34:40.707Z,33.12
2023-08-06T11:35:43.585Z,33.08
2023-08-06T11:36:47.266Z,33.09
2023-08-06T11:37:51.584Z,32.95
2023-08-06T11:38:53.465Z,33.03
2023-08-06T11:39:55.723Z,33.14
2023-08-06T11:40:58.032Z,33.15
2023-08-06T11:42:03.712Z,33.38
2023-08-06T11:43:07.461Z,33.27
2023-08-06T11:44:14.394Z,33.36
2023-08-06T11:45:18.416Z,32.91
2023-08-06T11:46:20.933Z,32.95
2023-08-06T11:47:24.732Z,32.98
2023-08-06T11:48:27.019Z,32.81
2023-08-06T11:49:46.538Z,32.98
2023-08-06T11:50:48.522Z,33.10
2023-08-06T11:51:52.884Z,33.17
2023-08-06T11:52:59.927Z,33.26
2023-08-06T11:54:02.194Z,33.36
2023-08-06T11:55:12.546Z,33.37
2023-08-06T11:56:15.764Z,33.47
2023-08-06T11:57:18.586Z,33.35
2023-08-06T11:58:21.309Z,33.41
2023-08-06T11:59:23.971Z,33.29
2023-08-06T12:00:27.411Z,33.15
2023-08-06T12:01:29.645Z,33.19
2023-08-06T12:02:38.234Z,33.24
2023-08-06T12:03:41.453Z,33.26
2023-08-06T12:05:04.007Z,33.16
2023-08-06T12:06:06.053Z,33.25
2023-08-06T12:07:09.119Z,33.21
2023-08-06T12:08:11.233Z,33.32
2023-08-06T12:09:16.178Z,33.29
2023-08-06T12:10:21.808Z,33.10
2023-08-06T12:11:24.919Z,33.13
2023-08-06T12:12:27.453Z,33.14
2023-08-06T12:13:29.709Z,33.15
2023-08-06T12:14:32.155Z,33.14
2023-08-06T12:15:34.287Z,33.13
2023-08-06T12:16:37.943Z,33.03
2023-08-06T12:17:40.693Z,33.10
2023-08-06T12:18:42.677Z,33.03
2023-08-06T12:19:46.216Z,33.06
2023-08-06T12:20:48.196Z,33.10
2023-08-06T12:21:50.410Z,32.95
2023-08-06T12:22:53.822Z,32.92
2023-08-06T12:23:56.942Z,32.81
2023-08-06T12:25:02.421Z,32.82
2023-08-06T12:26:08.413Z,32.80
2023-08-06T12:27:12.593Z,32.75
2023-08-06T12:28:14.809Z,32.88
2023-08-06T12:29:17.488Z,32.90
2023-08-06T12:30:22.373Z,32.82
2023-08-06T12:31:25.341Z,32.88
2023-08-06T12:32:28.620Z,32.66
2023-08-06T12:33:31.648Z,32.69
2023-08-06T12:34:47.085Z,32.72
2023-08-06T12:35:56.804Z,32.54
2023-08-06T12:37:03.038Z,32.63
2023-08-06T12:38:09.918Z,32.80
2023-08-06T12:39:14.718Z,32.86
2023-08-06T12:40:34.890Z,32.74
2023-08-06T12:41:40.603Z,32.60
2023-08-06T12:42:44.824Z,32.49
2023-08-06T12:43:46.934Z,32.44
2023-08-06T12:44:51.862Z,32.36
2023-08-06T12:45:54.494Z,32.33
2023-08-06T12:46:57.474Z,32.41
2023-08-06T12:48:01.381Z,32.36
2023-08-06T12:49:03.456Z,32.38
2023-08-06T12:50:09.087Z,32.47
2023-08-06T12:51:11.616Z,32.46
2023-08-06T12:52:17.464Z,32.51
2023-08-06T12:53:22.228Z,32.49
2023-08-06T12:54:24.525Z,32.66
2023-08-06T12:55:26.428Z,32.76
2023-08-06T12:56:28.474Z,32.74
2023-08-06T12:57:43.664Z,32.73
2023-08-06T12:58:55.114Z,32.67
2023-08-06T12:59:57.993Z,32.63
2023-08-06T13:01:01.815Z,32.60
2023-08-06T13:02:05.560Z,32.63
2023-08-06T13:03:09.450Z,32.63
2023-08-06T13:04:21.820Z,32.66
2023-08-06T13:05:24.932Z,32.68
2023-08-06T13:06:27.214Z,32.73
2023-08-06T13:07:31.635Z,32.54
2023-08-06T13:08:33.620Z,32.50
2023-08-06T13:09:35.636Z,32.53
2023-08-06T13:10:37.933Z,32.49
2023-08-06T13:11:43.555Z,32.58
2023-08-06T13:12:48.133Z,32.62
2023-08-06T13:13:50.360Z,32.64
2023-08-06T13:14:54.197Z,32.67
2023-08-06T13:15:56.319Z,32.60
2023-08-06T13:17:02.189Z,32.48
2023-08-06T13:18:04.443Z,32.45
2023-08-06T13:19:08.380Z,32.46
2023-08-06T13:20:11.989Z,32.51
2023-08-06T13:21:14.263Z,32.46
2023-08-06T13:22:21.560Z,32.55
2023-08-06T13:23:25.081Z,32.62
2023-08-06T13:24:28.716Z,32.66
2023-08-06T13:25:31.407Z,32.52
2023-08-06T13:26:33.567Z,32.66
2023-08-06T13:27:40.106Z,32.75
2023-08-06T13:28:42.566Z,32.73
2023-08-06T13:29:44.561Z,32.68
2023-08-06T13:30:47.057Z,32.74
2023-08-06T13:31:49.158Z,32.79
2023-08-06T13:32:53.486Z,32.72
2023-08-06T13:33:57.246Z,32.81
2023-08-06T13:35:00.759Z,32.66
2023-08-06T13:36:02.840Z,32.56
2023-08-06T13:37:05.520Z,32.55
2023-08-06T13:38:08.403Z,32.64
2023-08-06T13:39:13.453Z,32.60
2023-08-06T13:40:16.057Z,32.63
2023-08-06T13:41:19.599Z,32.55
2023-08-06T13:42:21.835Z,32.62
2023-08-06T13:43:24.131Z,32.60